Time;durP1;ratioP1;P1;durP2;ratioP2;P2;SDS_P1;SDS_P2;PMS_P1;PMS_P2;Temp;Humidity;BMP_temperature;BMP_pressure;BME280_temperature;BME280_humidity;BME280_pressure;Samples;Min_cycle;Max_cycle;Signal;HPM_P1;HPM_P2
2023/04/22 00:01:57;;;;;;;13.30;4.20;;;;;;;7.36;100.00;100701.73;110019;1238;65303;-69
2023/04/22 00:04:26;;;;;;;8.80;4.40;;;;;;;7.42;100.00;100702.36;110016;1240;61638;-71
2023/04/22 00:06:55;;;;;;;10.20;4.70;;;;;;;7.39;100.00;100702.42;109996;1239;68156;-71
2023/04/22 00:09:24;;;;;;;12.80;5.50;;;;;;;7.34;100.00;100706.15;109992;1240;63706;-71
2023/04/22 00:11:53;;;;;;;9.70;5.00;;;;;;;7.30;100.00;100709.15;109822;1242;62926;-70
2023/04/22 00:14:21;;;;;;;12.40;5.30;;;;;;;7.31;100.00;100708.98;109959;1238;61150;-71
2023/04/22 00:16:50;;;;;;;14.20;5.30;;;;;;;7.26;100.00;100712.73;109952;1240;65168;-70
2023/04/22 00:19:20;;;;;;;12.80;5.50;;;;;;;7.27;100.00;100713.36;109912;1241;61618;-71
2023/04/22 00:21:49;;;;;;;9.10;5.20;;;;;;;7.31;100.00;100715.17;109822;1240;60044;-70
2023/04/22 00:24:18;;;;;;;9.80;5.20;;;;;;;7.32;100.00;100715.31;109783;1238;62617;-70
2023/04/22 00:26:46;;;;;;;14.60;5.60;;;;;;;7.37;100.00;100714.81;109770;1241;63337;-71
2023/04/22 00:29:15;;;;;;;10.50;4.50;;;;;;;7.42;100.00;100714.72;109774;1241;60506;-70
2023/04/22 00:31:44;;;;;;;13.00;4.50;;;;;;;7.45;100.00;100715.22;109663;1238;64245;-70
2023/04/22 00:34:13;;;;;;;8.70;4.40;;;;;;;7.48;100.00;100717.48;109781;1238;61598;-70
2023/04/22 00:36:42;;;;;;;11.30;4.60;;;;;;;7.59;100.00;100718.03;109784;1239;70294;-69
2023/04/22 00:39:11;;;;;;;13.40;4.60;;;;;;;7.54;100.00;100716.23;109645;1240;74149;-70
2023/04/22 00:41:40;;;;;;;12.80;5.20;;;;;;;7.50;100.00;100719.23;109806;1242;62378;-70
2023/04/22 00:44:10;;;;;;;9.80;4.70;;;;;;;7.45;100.00;100717.30;109791;1238;59999;-70
2023/04/22 00:46:39;;;;;;;13.90;4.80;;;;;;;7.44;100.00;100719.59;109793;1242;62790;-70
2023/04/22 00:49:08;;;;;;;13.60;4.80;;;;;;;7.45;100.00;100722.31;109736;1241;70766;-70
2023/04/22 00:51:37;;;;;;;13.50;4.80;;;;;;;7.43;100.00;100722.64;109929;1238;60436;-70
2023/04/22 00:54:05;;;;;;;6.90;4.70;;;;;;;7.41;100.00;100722.68;109926;1242;73796;-70
2023/04/22 00:56:37;;;;;;;7.40;3.90;;;;;;;7.40;100.00;100725.88;109933;1242;58128;-70
2023/04/22 00:59:08;;;;;;;15.10;5.40;;;;;;;7.40;100.00;100726.46;109756;1238;61089;-70
2023/04/22 01:01:37;;;;;;;10.30;4.70;;;;;;;7.33;100.00;100732.72;109802;1238;74768;-70
2023/04/22 01:04:06;;;;;;;11.80;5.30;;;;;;;7.26;100.00;100735.41;109932;1238;71784;-70
2023/04/22 01:06:36;;;;;;;13.70;5.30;;;;;;;7.12;100.00;100735.48;109877;1238;71276;-70
2023/04/22 01:09:06;;;;;;;9.30;5.10;;;;;;;7.07;100.00;100735.08;110017;1237;64013;-70
2023/04/22 01:11:35;;;;;;;10.10;6.30;;;;;;;7.10;100.00;100732.17;109759;1241;58255;-70
2023/04/22 01:14:05;;;;;;;9.50;4.40;;;;;;;7.10;100.00;100729.71;109768;1238;58518;-70
2023/04/22 01:16:34;;;;;;;8.80;4.30;;;;;;;7.13;100.00;100734.05;109815;1238;73486;-70
2023/04/22 01:19:05;;;;;;;14.80;6.30;;;;;;;7.14;100.00;100732.09;109674;1238;62090;-69
2023/04/22 01:21:34;;;;;;;10.60;4.90;;;;;;;7.09;100.00;100728.92;109911;1238;69715;-70
2023/04/22 01:24:03;;;;;;;12.40;4.90;;;;;;;7.04;100.00;100730.09;109855;1241;73103;-69
2023/04/22 01:26:32;;;;;;;10.30;4.50;;;;;;;7.01;100.00;100729.00;109772;1241;57843;-70
2023/04/22 01:29:05;;;;;;;9.90;4.10;;;;;;;7.01;100.00;100724.50;109941;1242;58227;-70
2023/04/22 01:31:38;;;;;;;10.20;3.90;;;;;;;7.00;100.00;100727.17;109910;1238;74759;-70
2023/04/22 01:34:07;;;;;;;8.40;4.20;;;;;;;6.99;100.00;100727.61;109906;1241;72863;-70
2023/04/22 01:36:35;;;;;;;8.80;4.30;;;;;;;7.00;100.00;100731.85;109812;1238;70283;-70
2023/04/22 01:39:04;;;;;;;10.10;4.70;;;;;;;6.99;100.00;100731.92;109903;1238;63994;-70
2023/04/22 01:41:34;;;;;;;13.10;4.50;;;;;;;6.96;100.00;100734.02;109959;1242;57820;-69
2023/04/22 01:44:03;;;;;;;10.30;4.40;;;;;;;6.95;100.00;100731.11;109947;1238;60370;-69
2023/04/22 01:46:33;;;;;;;12.70;4.60;;;;;;;6.93;100.00;100728.09;109954;1241;64235;-69
2023/04/22 01:49:02;;;;;;;9.60;4.00;;;;;;;6.92;100.00;100728.70;110054;1238;72224;-69
2023/04/22 01:51:31;;;;;;;10.10;4.60;;;;;;;6.93;100.00;100724.16;109933;1238;59579;-69
2023/04/22 01:54:02;;;;;;;14.70;4.30;;;;;;;6.94;100.00;100726.54;109888;1238;74506;-69
2023/04/22 01:56:31;;;;;;;10.50;4.10;;;;;;;6.86;100.00;100726.23;109931;1241;58280;-70
2023/04/22 01:59:00;;;;;;;8.80;4.20;;;;;;;6.77;100.00;100729.21;109969;1238;58516;-70
2023/04/22 02:01:31;;;;;;;8.90;3.90;;;;;;;6.74;100.00;100731.77;109961;1237;74106;-70
2023/04/22 02:04:00;;;;;;;10.00;4.60;;;;;;;6.73;100.00;100729.04;110058;1238;72549;-70
2023/04/22 02:06:30;;;;;;;12.00;4.30;;;;;;;6.73;100.00;100730.10;109983;1238;59999;-70
2023/04/22 02:08:59;;;;;;;11.40;4.90;;;;;;;6.69;100.00;100732.42;109952;1241;63305;-70
2023/04/22 02:11:28;;;;;;;10.00;3.90;;;;;;;6.63;100.00;100726.88;109945;1241;62907;-70
2023/04/22 02:13:57;;;;;;;11.10;3.90;;;;;;;6.58;100.00;100727.32;109957;1238;61628;-70
2023/04/22 02:16:25;;;;;;;13.80;4.60;;;;;;;6.48;100.00;100729.77;109860;1238;74280;-70
2023/04/22 02:18:54;;;;;;;13.30;4.70;;;;;;;6.42;100.00;100730.08;109870;1238;71695;-70
2023/04/22 02:21:23;;;;;;;11.00;4.40;;;;;;;6.40;100.00;100727.40;109840;1242;59816;-70
2023/04/22 02:23:52;;;;;;;9.10;4.50;;;;;;;6.36;100.00;100729.55;109810;1238;73551;-70
2023/04/22 02:26:20;;;;;;;10.80;4.80;;;;;;;6.30;100.00;100727.63;109869;1241;63386;-70
2023/04/22 02:28:49;;;;;;;10.90;4.50;;;;;;;6.24;100.00;100727.94;109904;1241;58234;-71
2023/04/22 02:31:19;;;;;;;9.60;4.50;;;;;;;6.17;100.00;100733.73;109916;1242;71166;-70
2023/04/22 02:33:48;;;;;;;13.70;5.00;;;;;;;6.12;100.00;100735.50;110087;1238;61625;-68
2023/04/22 02:36:17;;;;;;;8.60;4.10;;;;;;;6.08;100.00;100737.76;110095;1241;59828;-69
2023/04/22 02:38:46;;;;;;;16.70;5.10;;;;;;;6.06;100.00;100737.75;109968;1241;62470;-70
2023/04/22 02:41:15;;;;;;;11.10;4.90;;;;;;;5.99;100.00;100740.36;109827;1242;57827;-71
2023/04/22 02:43:45;;;;;;;8.40;4.40;;;;;;;5.90;100.00;100738.55;109967;1238;60208;-71
2023/04/22 02:46:17;;;;;;;10.30;5.30;;;;;;;5.84;100.00;100734.22;110028;1238;64917;-70
2023/04/22 02:48:46;;;;;;;7.80;4.50;;;;;;;5.79;100.00;100734.27;109862;1238;71461;-70
2023/04/22 02:51:14;;;;;;;11.90;5.30;;;;;;;5.74;100.00;100736.82;110124;1238;69993;-70
2023/04/22 02:53:43;;;;;;;10.70;4.80;;;;;;;5.65;100.00;100737.63;110000;1238;63765;-72
2023/04/22 02:56:12;;;;;;;44.00;29.30;;;;;;;5.53;100.00;100736.98;109867;1241;58268;-71
2023/04/22 02:58:41;;;;;;;33.60;22.10;;;;;;;5.52;100.00;100735.35;110119;1238;60308;-69
2023/04/22 03:01:10;;;;;;;60.50;41.90;;;;;;;5.50;100.00;100738.02;110056;1238;74338;-69
2023/04/22 03:03:39;;;;;;;49.40;36.00;;;;;;;5.48;100.00;100740.87;109988;1241;61794;-70
2023/04/22 03:06:09;;;;;;;30.40;17.60;;;;;;;5.45;100.00;100743.98;110029;1237;60556;-70
2023/04/22 03:08:38;;;;;;;13.60;7.20;;;;;;;5.41;100.00;100750.77;110005;1239;62324;-69
2023/04/22 03:11:07;;;;;;;14.70;6.70;;;;;;;5.40;100.00;100753.39;109949;1239;63213;-69
2023/04/22 03:13:35;;;;;;;12.20;4.90;;;;;;;5.35;100.00;100751.42;110015;1241;61480;-69
2023/04/22 03:16:04;;;;;;;11.30;4.80;;;;;;;5.32;100.00;100753.08;109844;1237;63487;-69
2023/04/22 03:18:33;;;;;;;7.60;4.20;;;;;;;5.29;100.00;100756.88;109980;1241;60866;-69
2023/04/22 03:21:03;;;;;;;8.00;4.20;;;;;;;5.27;100.00;100755.05;109972;1241;59814;-69
2023/04/22 03:23:32;;;;;;;9.30;4.80;;;;;;;5.28;100.00;100755.38;109728;1238;74407;-70
2023/04/22 03:26:01;;;;;;;11.10;5.90;;;;;;;5.26;100.00;100758.05;109999;1241;58284;-71
2023/04/22 03:28:30;;;;;;;10.60;4.90;;;;;;;5.22;100.00;100760.32;109948;1238;60476;-71
2023/04/22 03:30:58;;;;;;;12.20;5.10;;;;;;;5.20;100.00;100763.38;109771;1240;64493;-71
2023/04/22 03:33:27;;;;;;;13.10;5.10;;;;;;;5.20;100.00;100767.67;109832;1241;61598;-71
2023/04/22 03:36:01;;;;;;;8.70;4.70;;;;;;;5.21;100.00;100765.91;109799;1238;70428;-71
2023/04/22 03:38:29;;;;;;;12.20;4.90;;;;;;;5.22;100.00;100767.39;109809;1238;73740;-71
2023/04/22 03:40:58;;;;;;;11.00;5.40;;;;;;;5.27;100.00;100771.98;109768;1242;57816;-71
2023/04/22 03:43:47;;;;;;;12.20;7.50;;;;;;;5.36;100.00;100782.76;110027;1238;61000;-71
2023/04/22 03:46:16;;;;;;;41.20;18.40;;;;;;;5.42;100.00;100783.70;109940;1241;74824;-70
2023/04/22 03:48:52;;;;;;;20.70;11.30;;;;;;;5.49;100.00;100785.05;109985;1238;72703;-72
2023/04/22 03:51:27;;;;;;;23.50;14.20;;;;;;;5.59;100.00;100787.67;110070;1238;71029;-71
2023/04/22 03:53:56;;;;;;;14.00;6.20;;;;;;;5.68;100.00;100790.49;109963;1238;74249;-72
2023/04/22 03:56:26;;;;;;;18.90;8.70;;;;;;;5.76;100.00;100793.02;109957;1241;58344;-70
2023/04/22 03:58:57;;;;;;;20.70;9.50;;;;;;;5.81;100.00;100796.39;110084;1238;58268;-70
2023/04/22 04:01:26;;;;;;;22.10;9.00;;;;;;;5.80;100.00;100793.87;109952;1241;63750;-70
2023/04/22 04:03:58;;;;;;;19.70;8.70;;;;;;;5.87;100.00;100795.78;109965;1242;62552;-70
2023/04/22 04:06:34;;;;;;;22.70;10.20;;;;;;;5.94;100.00;100798.19;109964;1237;70168;-70
2023/04/22 04:09:04;;;;;;;21.60;12.60;;;;;;;6.02;100.00;100798.65;109912;1241;63604;-71
2023/04/22 04:11:33;;;;;;;18.60;10.10;;;;;;;6.08;100.00;100799.15;109779;1242;57787;-70
2023/04/22 04:14:02;;;;;;;19.50;10.30;;;;;;;6.14;100.00;100797.17;109932;1241;58174;-71
2023/04/22 04:16:47;;;;;;;21.60;9.60;;;;;;;6.22;100.00;100793.64;109922;1238;65514;-72
2023/04/22 04:19:31;;;;;;;37.60;30.10;;;;;;;6.35;100.00;100795.85;109817;1238;71214;-71
2023/04/22 04:22:00;;;;;;;21.50;11.60;;;;;;;6.45;100.00;100791.17;109814;1238;70318;-72
2023/04/22 04:24:31;;;;;;;16.90;9.20;;;;;;;6.49;100.00;100786.45;109799;1241;71769;-71
2023/04/22 04:27:07;;;;;;;22.00;10.40;;;;;;;6.63;100.00;100794.85;109736;1242;62569;-69
2023/04/22 04:29:41;;;;;;;16.60;9.60;;;;;;;6.76;100.00;100799.16;109808;1241;61000;-69
2023/04/22 04:32:17;;;;;;;15.80;9.30;;;;;;;6.90;100.00;100795.64;109718;1238;74982;-70
2023/04/22 04:34:46;;;;;;;16.90;8.40;;;;;;;7.02;100.00;100794.92;109935;1238;63249;-71
2023/04/22 04:37:15;;;;;;;15.50;8.70;;;;;;;7.15;100.00;100794.58;109929;1238;60435;-70
2023/04/22 04:40:07;;;;;;;16.80;9.30;;;;;;;7.29;100.00;100798.95;109959;1238;74488;-73
2023/04/22 04:42:46;;;;;;;20.90;8.00;;;;;;;7.43;100.00;100800.73;109965;1241;63159;-73
2023/04/22 04:45:19;;;;;;;20.10;10.30;;;;;;;7.54;100.00;100799.59;109954;1238;59724;-73
2023/04/22 04:47:54;;;;;;;20.90;8.60;;;;;;;7.63;100.00;100799.11;110052;1238;73030;-68
2023/04/22 04:50:26;;;;;;;17.20;8.50;;;;;;;7.74;100.00;100800.52;110001;1239;72670;-68
2023/04/22 04:52:57;;;;;;;18.50;9.60;;;;;;;7.78;100.00;100802.91;109920;1239;70522;-69
2023/04/22 04:55:31;;;;;;;21.80;11.50;;;;;;;7.80;100.00;100793.95;109941;1241;73629;-69
2023/04/22 04:58:01;;;;;;;19.80;8.80;;;;;;;7.83;100.00;100791.83;109945;1241;64160;-69
2023/04/22 05:00:29;;;;;;;16.40;7.90;;;;;;;7.92;100.00;100791.80;109941;1238;60569;-68
2023/04/22 05:02:58;;;;;;;21.60;8.40;;;;;;;8.05;100.00;100795.38;109927;1238;74603;-71
2023/04/22 05:05:28;;;;;;;16.60;7.90;;;;;;;8.15;100.00;100796.30;109961;1238;72234;-70
2023/04/22 05:07:57;;;;;;;20.40;7.80;;;;;;;8.22;100.00;100800.06;109941;1238;60755;-71
2023/04/22 05:10:27;;;;;;;19.70;8.10;;;;;;;8.31;100.00;100801.93;109925;1238;62541;-70
2023/04/22 05:12:56;;;;;;;16.70;8.10;;;;;;;8.39;100.00;100803.55;109927;1241;62894;-70
2023/04/22 05:15:26;;;;;;;21.10;8.60;;;;;;;8.49;100.00;100801.38;109726;1242;61289;-69
2023/04/22 05:17:54;;;;;;;15.10;7.60;;;;;;;8.57;100.00;100798.63;109810;1238;74747;-70
2023/04/22 05:20:23;;;;;;;18.90;8.10;;;;;;;8.70;100.00;100802.16;109819;1238;72652;-70
2023/04/22 05:22:52;;;;;;;16.70;7.00;;;;;;;8.81;100.00;100808.21;109959;1238;60376;-70
2023/04/22 05:25:21;;;;;;;15.70;6.50;;;;;;;8.88;100.00;100806.73;109959;1239;72885;-71
2023/04/22 05:27:56;;;;;;;13.50;7.00;;;;;;;9.05;100.00;100806.48;109945;1239;58331;-71
2023/04/22 05:30:25;;;;;;;15.10;6.50;;;;;;;9.21;100.00;100809.45;109864;1238;57759;-70
2023/04/22 05:32:54;;;;;;;19.40;8.10;;;;;;;9.29;100.00;100810.14;109989;1238;64081;-70
2023/04/22 05:35:23;;;;;;;20.50;8.00;;;;;;;9.51;100.00;100810.27;110068;1238;61635;-70
2023/04/22 05:37:53;;;;;;;19.00;7.50;;;;;;;9.55;100.00;100808.11;109932;1238;69465;-71
2023/04/22 05:40:21;;;;;;;20.40;7.90;;;;;;;9.73;100.00;100811.42;109799;1242;74778;-71
2023/04/22 05:42:51;;;;;;;22.50;8.40;;;;;;;9.86;100.00;100814.73;109948;1239;63494;-70
2023/04/22 05:45:19;;;;;;;18.40;8.00;;;;;;;9.96;100.00;100812.77;109761;1238;61498;-71
2023/04/22 05:47:48;;;;;;;24.80;9.70;;;;;;;10.15;100.00;100812.01;109866;1238;64379;-70
2023/04/22 05:50:17;;;;;;;16.30;7.40;;;;;;;10.13;100.00;100809.59;109830;1238;72462;-70
2023/04/22 05:52:54;;;;;;;13.10;6.10;;;;;;;10.27;100.00;100812.23;109923;1238;59550;-71
2023/04/22 05:55:23;;;;;;;16.40;6.60;;;;;;;10.46;100.00;100812.50;109797;1238;63310;-71
2023/04/22 05:57:52;;;;;;;19.00;10.30;;;;;;;10.49;100.00;100807.05;109826;1238;62105;-71
2023/04/22 06:01:02;;;;;;;13.70;6.90;;;;;;;10.58;100.00;100792.13;109871;1241;60667;-71
2023/04/22 06:03:49;;;;;;;23.40;7.90;;;;;;;10.58;100.00;100788.34;109965;1238;64197;-68
2023/04/22 06:06:18;;;;;;;15.80;7.30;;;;;;;10.39;100.00;100806.77;109789;1238;71453;-70
2023/04/22 06:08:47;;;;;;;17.40;6.80;;;;;;;10.33;100.00;100809.08;109791;1237;71586;-69
2023/04/22 06:11:17;;;;;;;18.80;7.20;;;;;;;10.43;100.00;100812.06;109652;1238;62962;-68
2023/04/22 06:13:46;;;;;;;17.40;6.90;;;;;;;10.61;100.00;100814.95;109794;1239;57803;-70
2023/04/22 06:16:15;;;;;;;18.20;6.90;;;;;;;10.72;100.00;100819.24;109857;1238;58316;-74
2023/04/22 06:18:44;;;;;;;12.70;6.30;;;;;;;10.72;100.00;100814.70;109927;1238;71668;-74
2023/04/22 06:21:13;;;;;;;17.60;6.80;;;;;;;10.81;100.00;100806.91;109862;1238;61632;-70
2023/04/22 06:23:42;;;;;;;17.60;7.30;;;;;;;10.98;100.00;100816.46;110059;1238;59893;-71
2023/04/22 06:26:12;;;;;;;12.80;6.00;;;;;;;11.11;100.00;100814.69;109957;1238;62562;-68
2023/04/22 06:28:40;;;;;;;14.70;6.50;;;;;;;11.17;99.82;100816.87;109803;1238;60292;-71
2023/04/22 06:31:16;;;;;;;15.20;6.50;;;;;;;11.14;98.93;100817.59;109958;1238;60919;-72
2023/04/22 06:33:48;;;;;;;17.60;6.70;;;;;;;11.30;99.41;100819.04;109888;1238;63967;-72
2023/04/22 06:36:18;;;;;;;15.30;6.50;;;;;;;11.44;96.97;100819.21;109989;1238;61660;-72
2023/04/22 06:38:53;;;;;;;15.20;5.90;;;;;;;11.67;97.91;100822.36;110030;1238;59988;-72
2023/04/22 06:41:35;;;;;;;17.30;6.40;;;;;;;11.73;95.08;100819.84;109843;1238;73096;-72
2023/04/22 06:44:11;;;;;;;16.60;7.10;;;;;;;11.88;90.81;100823.39;110045;1238;60846;-72
2023/04/22 06:46:51;;;;;;;17.60;8.10;;;;;;;11.73;93.16;100821.25;109931;1237;61859;-73
2023/04/22 06:49:49;;;;;;;14.60;7.90;;;;;;;11.47;95.26;100822.10;109990;1238;75547;-72
2023/04/22 06:52:24;;;;;;;20.90;7.80;;;;;;;11.61;97.68;100822.27;109988;1238;60947;-72
2023/04/22 06:54:54;;;;;;;20.00;7.60;;;;;;;11.84;96.20;100823.71;109957;1238;70489;-73
2023/04/22 06:57:23;;;;;;;20.70;8.60;;;;;;;11.89;93.75;100823.70;110054;1238;62859;-69
2023/04/22 06:59:52;;;;;;;20.80;9.10;;;;;;;11.75;95.93;100824.56;109788;1238;58300;-70
2023/04/22 07:02:21;;;;;;;17.70;8.50;;;;;;;11.78;95.77;100826.91;109997;1238;61235;-70
2023/04/22 07:04:50;;;;;;;24.10;9.20;;;;;;;11.89;95.50;100827.34;109810;1238;74461;-70
2023/04/22 07:07:19;;;;;;;22.60;9.50;;;;;;;12.04;94.15;100830.61;109920;1238;61416;-70
2023/04/22 07:09:49;;;;;;;18.80;8.50;;;;;;;12.11;93.90;100827.93;109759;1241;69135;-74
2023/04/22 07:12:18;;;;;;;15.60;8.10;;;;;;;12.18;94.32;100835.27;109905;1238;73532;-71
2023/04/22 07:14:48;;;;;;;17.80;8.60;;;;;;;12.32;94.50;100833.64;109910;1238;61691;-70
2023/04/22 07:17:20;;;;;;;18.70;9.10;;;;;;;12.36;94.69;100833.81;109892;1240;57679;-70
2023/04/22 07:19:49;;;;;;;19.00;9.50;;;;;;;12.44;93.42;100835.85;109893;1238;64915;-71
2023/04/22 07:22:18;;;;;;;15.30;9.40;;;;;;;12.46;92.95;100842.98;109806;1241;61448;-71
2023/04/22 07:24:47;;;;;;;18.60;10.10;;;;;;;12.53;93.62;100848.48;109816;1241;68510;-71
2023/04/22 07:27:16;;;;;;;19.00;10.10;;;;;;;12.62;93.36;100844.27;109741;1241;73756;-70
2023/04/22 07:29:45;;;;;;;15.00;9.30;;;;;;;12.64;91.10;100843.38;109792;1239;58690;-70
2023/04/22 07:32:13;;;;;;;20.10;9.90;;;;;;;12.69;91.81;100843.83;109760;1238;60807;-71
2023/04/22 07:34:42;;;;;;;21.10;9.80;;;;;;;12.89;89.23;100851.02;109756;1238;64549;-70
2023/04/22 07:37:11;;;;;;;16.50;9.80;;;;;;;12.98;89.43;100850.60;109856;1238;71581;-73
2023/04/22 07:39:39;;;;;;;18.20;10.00;;;;;;;13.17;90.45;100848.73;109880;1239;70017;-70
2023/04/22 07:42:09;;;;;;;14.70;8.70;;;;;;;13.30;89.37;100851.05;109901;1238;63406;-70
2023/04/22 07:44:37;;;;;;;17.60;9.50;;;;;;;13.54;89.87;100855.34;109869;1239;62668;-69
2023/04/22 07:47:09;;;;;;;13.50;6.80;;;;;;;13.81;86.86;100856.29;109932;1238;61558;-70
2023/04/22 07:49:38;;;;;;;16.90;7.10;;;;;;;13.92;85.41;100859.17;109797;1238;74816;-71
2023/04/22 07:52:08;;;;;;;17.60;7.00;;;;;;;14.16;85.02;100857.88;109883;1241;72689;-71
2023/04/22 07:54:37;;;;;;;13.80;7.70;;;;;;;14.37;84.68;100859.06;109914;1238;71539;-71
2023/04/22 07:57:05;;;;;;;12.50;7.60;;;;;;;14.57;82.22;100859.27;109851;1238;72443;-71
2023/04/22 07:59:34;;;;;;;15.30;7.30;;;;;;;14.76;82.71;100860.80;109918;1239;57761;-71
2023/04/22 08:02:03;;;;;;;15.00;7.10;;;;;;;14.93;79.70;100859.42;109863;1238;58295;-71
2023/04/22 08:04:32;;;;;;;12.40;7.50;;;;;;;15.03;77.73;100855.55;109938;1239;63015;-70
2023/04/22 08:07:02;;;;;;;11.10;7.00;;;;;;;15.07;77.43;100853.98;109886;1241;60964;-71
2023/04/22 08:09:51;;;;;;;12.80;7.10;;;;;;;15.18;77.87;100849.34;109734;1240;60062;-72
2023/04/22 08:12:20;;;;;;;12.60;7.80;;;;;;;15.22;76.04;100848.13;109727;1240;63373;-79
2023/04/22 08:14:48;;;;;;;15.40;8.30;;;;;;;15.25;78.03;100847.85;109841;1240;61294;-77
2023/04/22 08:17:20;;;;;;;13.50;7.10;;;;;;;15.33;75.10;100847.60;109706;1239;58326;-74
2023/04/22 08:19:49;;;;;;;9.90;6.50;;;;;;;15.45;76.18;100846.08;109788;1240;73983;-79
2023/04/22 08:22:18;;;;;;;12.50;6.80;;;;;;;15.57;73.41;100850.05;109407;1239;341741;-77
2023/04/22 08:24:47;;;;;;;13.90;6.80;;;;;;;15.56;74.51;100847.66;109675;1241;59979;-77
2023/04/22 08:27:16;;;;;;;11.80;6.20;;;;;;;15.67;73.94;100846.70;109762;1240;73078;-75
2023/04/22 08:29:44;;;;;;;11.40;7.50;;;;;;;15.72;71.85;100852.24;109759;1240;60886;-75
2023/04/22 08:32:13;;;;;;;14.40;7.40;;;;;;;15.69;73.56;100849.50;109713;1241;58158;-76
2023/04/22 08:34:42;;;;;;;10.60;6.40;;;;;;;15.78;67.57;100847.47;109642;1243;63022;-83
2023/04/22 08:37:11;;;;;;;10.70;7.30;;;;;;;15.75;59.83;100848.41;109792;1240;60953;-72
2023/04/22 08:39:40;;;;;;;12.60;6.80;;;;;;;15.76;59.19;100849.86;109807;1241;60033;-77
2023/04/22 08:42:10;;;;;;;12.60;6.90;;;;;;;15.77;58.72;100845.39;109679;1242;62515;-72
2023/04/22 08:44:40;;;;;;;9.20;6.90;;;;;;;15.82;56.51;100847.79;109707;1241;61391;-69
2023/04/22 08:47:09;;;;;;;12.30;7.20;;;;;;;15.81;55.68;100850.48;109694;1240;58458;-69
2023/04/22 08:49:38;;;;;;;13.50;7.70;;;;;;;15.90;55.45;100850.52;109734;1242;63765;-69
2023/04/22 08:52:08;;;;;;;11.40;7.40;;;;;;;15.99;55.25;100852.16;109738;1240;72837;-69
2023/04/22 08:54:37;;;;;;;10.70;7.20;;;;;;;16.03;55.34;100847.97;109768;1240;59457;-70
2023/04/22 08:57:07;;;;;;;12.10;7.10;;;;;;;16.08;55.79;100845.52;109649;1240;73226;-70
2023/04/22 08:59:37;;;;;;;10.70;7.30;;;;;;;16.24;55.73;100846.52;109732;1242;61492;-70
2023/04/22 09:02:22;;;;;;;14.60;7.60;;;;;;;16.38;53.81;100841.50;109703;1240;60807;-70
2023/04/22 09:04:54;;;;;;;12.40;7.40;;;;;;;16.43;52.49;100839.02;109745;1240;75002;-69
2023/04/22 09:07:28;;;;;;;10.00;6.40;;;;;;;16.39;51.98;100837.00;109695;1239;63887;-69
2023/04/22 09:09:58;;;;;;;10.60;7.40;;;;;;;16.43;49.82;100840.12;109920;1238;60464;-70
2023/04/22 09:12:27;;;;;;;10.50;7.40;;;;;;;16.40;50.22;100835.11;109731;1238;73916;-70
2023/04/22 09:14:56;;;;;;;12.10;7.80;;;;;;;16.43;51.95;100836.11;109976;1238;60820;-70
2023/04/22 09:17:32;;;;;;;11.00;7.00;;;;;;;16.62;52.51;100836.02;110026;1238;60752;-71
2023/04/22 09:20:03;;;;;;;12.20;7.50;;;;;;;16.74;52.28;100835.78;109962;1238;63451;-72
2023/04/22 09:22:45;;;;;;;11.90;7.60;;;;;;;16.81;52.89;100832.96;109806;1238;61636;-72
2023/04/22 09:25:26;;;;;;;9.70;7.10;;;;;;;16.94;52.11;100838.77;109816;1238;59983;-72
2023/04/22 09:27:57;;;;;;;9.80;7.10;;;;;;;16.99;49.91;100829.27;109682;1238;73857;-70
2023/04/22 09:30:31;;;;;;;12.50;7.50;;;;;;;17.06;50.69;100839.19;109669;1238;62091;-70
2023/04/22 09:33:03;;;;;;;9.70;6.20;;;;;;;17.15;50.72;100837.70;109679;1238;58352;-72
2023/04/22 09:35:38;;;;;;;10.20;7.10;;;;;;;17.26;50.21;100829.98;109630;1238;74147;-71
2023/04/22 09:38:10;;;;;;;11.10;7.60;;;;;;;17.28;50.04;100833.13;109694;1241;61184;-72
2023/04/22 09:40:42;;;;;;;11.50;7.50;;;;;;;17.26;49.76;100832.08;109780;1238;61983;-71
2023/04/22 09:43:12;;;;;;;9.10;6.70;;;;;;;17.40;50.61;100827.23;109551;1238;74156;-71
2023/04/22 09:45:41;;;;;;;10.30;7.50;;;;;;;17.53;49.25;100826.08;109645;1241;57888;-70
2023/04/22 09:48:13;;;;;;;9.50;7.00;;;;;;;17.51;48.77;100823.45;109710;1241;58227;-74
2023/04/22 09:50:49;;;;;;;10.80;6.50;;;;;;;17.55;46.40;100821.84;109856;1237;74847;-72
2023/04/22 09:53:20;;;;;;;10.20;6.60;;;;;;;17.59;47.64;100817.14;109909;1238;61247;-72
2023/04/22 09:55:53;;;;;;;9.90;7.20;;;;;;;17.75;48.65;100818.97;109792;1241;59172;-71
2023/04/22 09:58:26;;;;;;;;;;;;;;;17.92;47.76;100815.46;109851;1241;72882;-70
2023/04/22 10:00:57;;;;;;;;;;;;;;;17.98;46.92;100809.73;109885;1238;58334;-70
2023/04/22 10:03:26;;;;;;;10.10;6.60;;;;;;;18.00;46.70;100814.35;109844;1239;58319;-71
2023/04/22 10:05:56;;;;;;;10.20;6.90;;;;;;;17.96;47.32;100820.02;109995;1239;63713;-71
2023/04/22 10:08:25;;;;;;;12.90;6.50;;;;;;;17.88;47.53;100818.13;109953;1238;71364;-71
2023/04/22 10:10:54;;;;;;;9.30;6.30;;;;;;;17.83;45.63;100818.14;109763;1241;59970;-70
2023/04/22 10:13:23;;;;;;;10.70;6.60;;;;;;;17.92;45.63;100818.14;109760;1239;63553;-70
2023/04/22 10:15:55;;;;;;;9.30;6.60;;;;;;;18.00;44.32;100814.77;109715;1238;57773;-70
2023/04/22 10:18:27;;;;;;;11.90;6.80;;;;;;;17.91;45.03;100810.16;109857;1238;61574;-70
2023/04/22 10:20:57;;;;;;;10.20;6.40;;;;;;;18.02;45.41;100803.68;109904;1238;74776;-71
2023/04/22 10:23:31;;;;;;;12.20;6.90;;;;;;;18.35;44.67;100809.80;109849;1238;71933;-71
2023/04/22 10:26:00;;;;;;;9.70;6.50;;;;;;;18.54;44.29;100801.87;109822;1241;59585;-72
2023/04/22 10:28:29;;;;;;;9.90;6.10;;;;;;;18.79;43.16;100804.35;109817;1239;63223;-72
2023/04/22 10:30:58;;;;;;;9.70;5.10;;;;;;;19.07;42.02;100796.27;110011;1240;58283;-71
2023/04/22 10:33:27;;;;;;;7.60;6.30;;;;;;;19.36;39.07;100794.70;109995;1238;57751;-72
2023/04/22 10:36:13;;;;;;;9.40;6.10;;;;;;;19.49;39.65;100791.74;109935;1239;63877;-72
2023/04/22 10:38:55;;;;;;;11.20;6.30;;;;;;;19.65;39.87;100786.26;109995;1238;71438;-71
2023/04/22 10:41:34;;;;;;;9.80;6.00;;;;;;;19.60;37.11;100779.92;109895;1238;70465;-72
2023/04/22 10:44:07;;;;;;;9.70;6.20;;;;;;;20.16;37.21;100780.09;109801;1241;63699;-72
2023/04/22 10:46:40;;;;;;;;;;;;;;;20.38;37.09;100774.64;109681;1241;59538;-70
2023/04/22 10:49:17;;;;;;;15.60;9.80;;;;;;;20.45;37.22;100772.10;109993;1239;58237;-71
2023/04/22 10:51:54;;;;;;;12.30;7.30;;;;;;;21.12;37.25;100765.46;109951;1238;74197;-71
2023/04/22 10:54:26;;;;;;;9.30;6.50;;;;;;;21.13;36.93;100761.91;109729;1244;61504;-71
2023/04/22 10:57:07;;;;;;;10.10;6.00;;;;;;;21.30;35.93;100769.48;110012;1238;69712;-71
2023/04/22 10:59:50;;;;;;;10.30;5.80;;;;;;;21.11;34.93;100763.08;109980;1238;74344;-70
2023/04/22 11:02:21;;;;;;;8.70;5.90;;;;;;;20.80;34.76;100763.65;109890;1241;58282;-71
2023/04/22 11:04:53;;;;;;;9.30;5.70;;;;;;;21.42;34.38;100758.58;109859;1242;57735;-71
2023/04/22 11:07:29;;;;;;;7.00;5.60;;;;;;;22.11;31.96;100753.63;109915;1241;63746;-71
2023/04/22 11:10:15;;;;;;;9.70;5.70;;;;;;;22.41;31.87;100753.35;109917;1241;60916;-71
2023/04/22 11:12:44;;;;;;;7.90;5.70;;;;;;;22.47;31.58;100761.84;109810;1241;61094;-71
2023/04/22 11:15:16;;;;;;;11.10;5.90;;;;;;;22.38;31.60;100755.62;109871;1241;63229;-72
2023/04/22 11:17:51;;;;;;;9.00;5.70;;;;;;;22.02;31.66;100754.52;109584;1241;57844;-71
2023/04/22 11:20:21;;;;;;;12.20;6.00;;;;;;;21.66;31.33;100756.50;109877;1238;57805;-71
2023/04/22 11:22:55;;;;;;;7.80;5.50;;;;;;;21.89;31.40;100759.35;109839;1240;74310;-71
2023/04/22 11:25:25;;;;;;;7.60;5.20;;;;;;;21.88;30.52;100756.71;109630;1238;73075;-72
2023/04/22 11:27:55;;;;;;;8.50;5.40;;;;;;;22.15;31.27;100755.73;109715;1238;61760;-70